Time;durP1;ratioP1;P1;durP2;ratioP2;P2;SDS_P1;SDS_P2;PMS_P1;PMS_P2;Temp;Humidity;BMP_temperature;BMP_pressure;BME280_temperature;BME280_humidity;BME280_pressure;Samples;Min_cycle;Max_cycle;Signal;HPM_P1;HPM_P2
2021/10/03 00:08:42;;;;;;;17.30;14.55;;;22.60;51.90;;;;;;31138274;28;20046;-53
2021/10/03 00:23:44;;;;;;;16.10;13.23;;;22.50;52.00;;;;;;31142072;28;20042;-43
2021/10/03 00:38:47;;;;;;;18.23;14.32;;;22.50;52.30;;;;;;31138420;28;20053;-49
2021/10/03 00:53:49;;;;;;;20.13;13.85;;;22.50;52.40;;;;;;31137350;28;20077;-47
2021/10/03 01:08:51;;;;;;;13.25;11.85;;;22.40;52.50;;;;;;31131666;28;20050;-52
2021/10/03 01:23:56;;;;;;;16.30;11.90;;;22.40;52.80;;;;;;31131796;28;20053;-44
2021/10/03 01:38:58;;;;;;;15.35;12.52;;;22.40;53.20;;;;;;31134354;28;20069;-43
2021/10/03 01:54:02;;;;;;;12.45;10.88;;;22.40;53.40;;;;;;31131076;28;20070;-46
2021/10/03 02:09:04;;;;;;;12.55;9.98;;;22.40;53.60;;;;;;31130279;28;20192;-46
2021/10/03 02:24:06;;;;;;;12.00;10.35;;;22.30;53.60;;;;;;31155726;28;20081;-46
2021/10/03 02:39:08;;;;;;;13.77;10.13;;;22.30;53.70;;;;;;31151987;28;20200;-48
2021/10/03 02:54:10;;;;;;;12.13;10.15;;;22.30;53.80;;;;;;31152805;28;20073;-50
2021/10/03 03:09:12;;;;;;;10.50;9.15;;;22.30;53.90;;;;;;31152033;28;20042;-44
2021/10/03 03:24:14;;;;;;;7.93;5.88;;;22.30;53.40;;;;;;31166349;28;20049;-45
2021/10/03 03:39:16;;;;;;;4.05;3.65;;;22.30;53.50;;;;;;31271070;28;20049;-44
2021/10/03 03:54:18;;;;;;;2.00;1.70;;;22.60;53.30;;;;;;31254610;28;20054;-50
2021/10/03 04:09:21;;;;;;;1.27;1.17;;;23.30;52.10;;;;;;31179543;28;20080;-52
2021/10/03 04:24:23;;;;;;;1.77;0.90;;;23.20;52.60;;;;;;31136572;28;20065;-50
2021/10/03 04:39:26;;;;;;;0.55;0.55;;;23.00;53.20;;;;;;31135528;28;20066;-50
2021/10/03 04:54:28;;;;;;;1.63;0.60;;;22.90;53.20;;;;;;31134854;28;20089;-52
2021/10/03 05:09:30;;;;;;;4.50;2.08;;;22.80;53.10;;;;;;31210499;28;20089;-49
2021/10/03 05:24:32;;;;;;;7.25;2.83;;;22.70;53.00;;;;;;31212839;28;20061;-41
2021/10/03 05:39:34;;;;;;;7.50;2.72;;;22.60;52.80;;;;;;31241523;28;20049;-48
2021/10/03 05:54:36;;;;;;;14.85;4.95;;;22.50;53.00;;;;;;31240643;28;20068;-52
2021/10/03 06:09:38;;;;;;;31.10;5.57;;;22.40;52.10;;;;;;31247856;28;20065;-53
2021/10/03 06:24:40;;;;;;;14.23;4.95;;;22.40;52.70;;;;;;31246552;28;20042;-51
2021/10/03 06:39:42;;;;;;;42.45;11.32;;;22.70;52.20;;;;;;31249058;28;20121;-47
2021/10/03 06:54:45;;;;;;;29.52;7.97;;;22.90;52.30;;;;;;31252622;28;20058;-43
2021/10/03 07:09:47;;;;;;;18.38;6.88;;;22.90;51.80;;;;;;31273593;28;20080;-46
2021/10/03 07:24:49;;;;;;;173.02;48.75;;;22.90;52.00;;;;;;31272603;28;20077;-47
2021/10/03 07:39:51;;;;;;;579.95;202.93;;;22.70;52.80;;;;;;31269229;28;20046;-51
2021/10/03 07:54:53;;;;;;;548.28;190.40;;;22.70;54.20;;;;;;31246932;28;20074;-41
2021/10/03 08:09:57;;;;;;;508.75;188.30;;;22.70;54.50;;;;;;31258900;28;20518;-49
2021/10/03 08:24:59;;;;;;;482.15;173.40;;;22.50;54.80;;;;;;31205254;28;20046;-50
2021/10/03 08:40:05;;;;;;;419.08;153.18;;;22.50;54.20;;;;;;31141683;28;20121;-53
2021/10/03 08:55:12;;;;;;;396.00;133.18;;;22.50;55.10;;;;;;31195523;28;20506;-48
2021/10/03 09:10:14;;;;;;;196.02;69.20;;;22.50;55.20;;;;;;31150181;28;20051;-42
2021/10/03 09:25:36;;;;;;;119.18;45.45;;;22.40;53.80;;;;;;31133828;28;20149;-52
2021/10/03 09:40:38;;;;;;;118.10;42.33;;;22.20;49.70;;;;;;31237917;28;20140;-46
2021/10/03 09:55:42;;;;;;;109.47;41.72;;;22.30;53.10;;;;;;31209547;28;20065;-52
2021/10/03 10:10:44;;;;;;;95.22;38.58;;;22.50;56.60;;;;;;31207496;28;20046;-51
2021/10/03 10:25:54;;;;;;;92.50;39.35;;;22.40;56.90;;;;;;31176903;28;20046;-54
2021/10/03 10:40:56;;;;;;;81.80;34.53;;;22.40;57.30;;;;;;31288182;28;20065;-47
2021/10/03 10:56:07;;;;;;;82.13;34.88;;;22.40;57.30;;;;;;31340370;28;20057;-45
2021/10/03 11:11:12;;;;;;;73.55;32.00;;;22.40;57.30;;;;;;31273255;28;20069;-42
2021/10/03 11:26:14;;;;;;;80.65;31.67;;;22.40;57.00;;;;;;31224009;28;20039;-45
2021/10/03 11:41:16;;;;;;;65.00;26.85;;;22.30;57.10;;;;;;31187767;28;20097;-42
2021/10/03 11:56:19;;;;;;;58.97;25.73;;;22.40;56.30;;;;;;31145817;28;20058;-45
2021/10/03 12:11:22;;;;;;;41.58;18.27;;;23.00;56.10;;;;;;31139909;28;20574;-53
2021/10/03 12:26:41;;;;;;;30.33;13.85;;;23.20;56.20;;;;;;31140755;28;20443;-43
2021/10/03 12:41:43;;;;;;;32.05;12.60;;;23.00;56.00;;;;;;31235966;28;20085;-39
2021/10/03 12:56:45;;;;;;;24.15;11.00;;;22.90;56.30;;;;;;31277198;28;20079;-52
2021/10/03 13:11:48;;;;;;;21.30;8.35;;;22.90;55.90;;;;;;31376258;28;20057;-43
2021/10/03 13:26:50;;;;;;;17.08;7.80;;;22.80;56.20;;;;;;31227812;28;20066;-50
2021/10/03 13:41:52;;;;;;;16.77;6.45;;;22.70;56.30;;;;;;31252167;28;20050;-44
2021/10/03 13:56:54;;;;;;;22.90;12.70;;;22.60;55.60;;;;;;31237523;28;20153;-53
2021/10/03 14:11:58;;;;;;;33.70;20.23;;;22.60;56.10;;;;;;31206940;28;20065;-55
2021/10/03 14:27:00;;;;;;;19.00;14.13;;;22.60;55.70;;;;;;31158828;28;20038;-54
2021/10/03 14:42:03;;;;;;;16.85;11.88;;;22.50;55.30;;;;;;31132671;28;20114;-55
2021/10/03 14:57:05;;;;;;;19.08;13.02;;;22.50;55.20;;;;;;31225751;28;20049;-53
2021/10/03 15:12:08;;;;;;;23.48;14.27;;;22.40;55.10;;;;;;31244157;28;20050;-52
2021/10/03 15:27:10;;;;;;;303.83;254.25;;;22.50;55.50;;;;;;31264817;28;20053;-48
2021/10/03 15:42:13;;;;;;;236.82;187.80;;;22.50;56.40;;;;;;31263521;28;20045;-48
2021/10/03 15:57:15;;;;;;;204.93;168.15;;;22.50;57.20;;;;;;31265821;28;20046;-46
2021/10/03 16:12:18;;;;;;;199.02;156.52;;;22.50;56.80;;;;;;31262893;28;20066;-44
2021/10/03 16:27:20;;;;;;;174.52;142.25;;;22.40;57.20;;;;;;31257090;28;20038;-44
2021/10/03 16:42:22;;;;;;;157.02;121.75;;;22.50;58.60;;;;;;31256257;28;20054;-46
2021/10/03 16:57:26;;;;;;;133.85;104.82;;;22.50;59.00;;;;;;31259382;28;20045;-46
2021/10/03 17:12:31;;;;;;;121.72;91.95;;;22.50;58.30;;;;;;31257308;28;20057;-42
2021/10/03 17:27:33;;;;;;;107.80;82.88;;;22.50;58.90;;;;;;31253230;28;20038;-44
2021/10/03 17:42:37;;;;;;;97.65;71.80;;;22.50;58.80;;;;;;31250503;28;20061;-44
2021/10/03 17:57:41;;;;;;;87.25;62.83;;;22.60;58.60;;;;;;31248424;28;20045;-47
2021/10/03 18:12:46;;;;;;;81.15;55.75;;;22.60;59.00;;;;;;31220487;28;20046;-50
2021/10/03 18:27:48;;;;;;;66.32;50.63;;;22.80;59.60;;;;;;31231492;28;20049;-48
2021/10/03 18:42:50;;;;;;;61.80;44.65;;;22.80;61.00;;;;;;31130207;28;20053;-42
2021/10/03 18:57:52;;;;;;;51.28;36.78;;;22.70;61.60;;;;;;31137121;28;20130;-45
2021/10/03 19:12:54;;;;;;;48.70;32.58;;;22.70;60.30;;;;;;31139583;28;20057;-43
2021/10/03 19:27:58;;;;;;;43.60;28.50;;;22.70;60.70;;;;;;31137405;28;20054;-37
2021/10/03 19:43:00;;;;;;;37.55;25.13;;;22.70;60.20;;;;;;31250184;28;20073;-40
2021/10/03 19:58:04;;;;;;;31.98;22.58;;;22.70;60.40;;;;;;31258127;28;20053;-45
2021/10/03 20:13:07;;;;;;;27.67;19.42;;;22.60;61.00;;;;;;31260754;28;20154;-47
2021/10/03 20:28:09;;;;;;;39.90;28.63;;;22.60;60.90;;;;;;31263156;28;20043;-44
2021/10/03 20:43:11;;;;;;;32.42;25.85;;;22.60;60.40;;;;;;31263725;28;20514;-43
2021/10/03 20:58:13;;;;;;;35.70;25.70;;;22.70;59.70;;;;;;31262563;28;20125;-42
2021/10/03 21:13:33;;;;;;;32.85;22.30;;;22.60;60.20;;;;;;31252600;28;20048;-48
2021/10/03 21:28:35;;;;;;;26.80;20.57;;;22.70;59.80;;;;;;31252950;28;20089;-45
2021/10/03 21:43:37;;;;;;;42.55;23.10;;;22.70;59.50;;;;;;30857041;28;9999899;-47
2021/10/03 21:58:39;;;;;;;26.17;15.27;;;22.60;59.30;;;;;;31247663;28;20046;-49
2021/10/03 22:13:42;;;;;;;13.50;9.43;;;22.60;58.90;;;;;;31250533;28;20056;-43
2021/10/03 22:28:45;;;;;;;10.73;5.80;;;22.50;58.90;;;;;;31252456;28;20042;-44
2021/10/03 22:43:47;;;;;;;5.13;3.88;;;22.50;59.10;;;;;;31273110;28;20061;-44
2021/10/03 22:58:49;;;;;;;2.60;2.10;;;22.50;58.60;;;;;;31276522;28;20049;-47
2021/10/03 23:13:51;;;;;;;1.67;1.40;;;22.50;59.20;;;;;;31153987;28;20054;-46
2021/10/03 23:28:55;;;;;;;1.13;1.02;;;22.50;59.60;;;;;;31149417;28;20074;-43
2021/10/03 23:44:00;;;;;;;0.65;0.60;;;22.50;60.10;;;;;;31013210;28;10000315;-43
2021/10/03 23:59:02;;;;;;;1.27;0.50;;;22.40;60.00;;;;;;31386068;28;20069;-43
